Time;durP1;ratioP1;P1;durP2;ratioP2;P2;SDS_P1;SDS_P2;PMS_P1;PMS_P2;Temp;Humidity;BMP_temperature;BMP_pressure;BME280_temperature;BME280_humidity;BME280_pressure;Samples;Min_cycle;Max_cycle;Signal;HPM_P1;HPM_P2
2022/05/20 00:00:39;;;;;;;5.90;5.40;;;19.30;31.20;;;;;;4960879;28;20417;-72
2022/05/20 00:03:06;;;;;;;6.63;5.30;;;19.30;31.40;;;;;;4961039;28;20930;-73
2022/05/20 00:05:32;;;;;;;7.33;5.27;;;19.30;31.90;;;;;;4944959;29;20645;-72
2022/05/20 00:07:58;;;;;;;6.17;5.60;;;19.20;31.50;;;;;;4942398;29;20855;-71
2022/05/20 00:10:24;;;;;;;5.27;4.77;;;19.20;32.10;;;;;;4940549;29;20433;-71
2022/05/20 00:12:50;;;;;;;7.90;5.10;;;19.20;31.80;;;;;;4957887;28;20238;-71
2022/05/20 00:15:21;;;;;;;5.30;4.83;;;19.20;31.70;;;;;;4958498;29;20432;-71
2022/05/20 00:17:47;;;;;;;6.03;5.20;;;19.20;31.80;;;;;;4958343;29;20974;-71
2022/05/20 00:20:15;;;;;;;6.43;5.73;;;19.20;31.40;;;;;;4958189;29;20497;-71
2022/05/20 00:22:41;;;;;;;5.60;5.10;;;19.20;31.30;;;;;;4958136;29;20599;-71
2022/05/20 00:27:52;;;;;;;5.87;5.37;;;19.10;31.30;;;;;;4958020;29;20689;-71
2022/05/20 00:30:18;;;;;;;6.83;5.00;;;19.10;31.30;;;;;;4957719;29;20504;-71
2022/05/20 00:32:43;;;;;;;4.97;4.57;;;19.00;31.50;;;;;;4957560;29;20193;-71
2022/05/20 00:35:10;;;;;;;5.90;5.40;;;19.00;31.40;;;;;;4957332;28;20202;-71
2022/05/20 00:37:36;;;;;;;6.90;5.17;;;19.00;31.20;;;;;;4956784;29;20296;-71
2022/05/20 00:40:03;;;;;;;10.73;5.40;;;19.10;30.90;;;;;;4956726;29;20504;-71
2022/05/20 00:42:28;;;;;;;8.23;5.57;;;19.10;30.90;;;;;;4957134;29;20170;-71
2022/05/20 00:44:54;;;;;;;6.27;5.77;;;19.00;31.10;;;;;;4956898;28;20440;-72
2022/05/20 00:47:19;;;;;;;6.73;6.03;;;19.00;31.60;;;;;;4939471;29;20183;-72
2022/05/20 00:49:52;;;;;;;6.80;6.07;;;19.00;31.10;;;;;;4956798;29;20233;-72
2022/05/20 00:52:21;;;;;;;5.93;5.30;;;19.10;30.70;;;;;;4956519;29;20174;-72
2022/05/20 00:54:51;;;;;;;10.30;4.87;;;19.10;30.60;;;;;;4956664;28;20465;-72
2022/05/20 00:57:43;;;;;;;6.53;5.93;;;19.10;30.60;;;;;;4956577;29;20903;-72
2022/05/20 01:00:13;;;;;;;6.10;5.60;;;19.10;30.40;;;;;;4946330;29;20799;-72
2022/05/20 01:02:40;;;;;;;5.10;4.70;;;19.20;30.10;;;;;;4957122;29;20476;-72
2022/05/20 01:05:16;;;;;;;5.60;5.00;;;19.20;30.00;;;;;;4957278;28;20436;-72
2022/05/20 01:07:42;;;;;;;7.90;5.70;;;19.20;30.00;;;;;;4958960;29;20409;-72
2022/05/20 01:10:08;;;;;;;5.90;5.40;;;19.20;30.20;;;;;;4957169;29;20409;-72
2022/05/20 01:12:34;;;;;;;6.30;5.70;;;19.20;30.00;;;;;;4955738;28;20410;-72
2022/05/20 01:15:00;;;;;;;8.47;6.60;;;19.30;29.80;;;;;;4956451;28;20437;-72
2022/05/20 01:17:27;;;;;;;7.20;6.60;;;19.50;29.30;;;;;;4956502;29;20174;-71
2022/05/20 01:19:56;;;;;;;7.30;6.63;;;19.50;29.10;;;;;;4956757;29;20232;-72
2022/05/20 01:22:40;;;;;;;7.80;6.33;;;19.60;29.10;;;;;;4956579;29;20430;-71
2022/05/20 01:25:08;;;;;;;7.53;6.90;;;19.60;28.90;;;;;;4940209;29;20460;-71
2022/05/20 01:27:36;;;;;;;6.80;6.30;;;19.70;28.50;;;;;;4956259;29;20500;-71
2022/05/20 01:30:05;;;;;;;7.13;6.67;;;19.70;28.20;;;;;;4956071;29;20464;-71
2022/05/20 01:32:31;;;;;;;8.17;7.37;;;19.80;27.90;;;;;;4956104;29;20410;-71
2022/05/20 01:34:57;;;;;;;7.00;6.50;;;19.80;27.90;;;;;;4955854;28;21009;-72
2022/05/20 01:37:22;;;;;;;7.63;7.03;;;19.80;27.50;;;;;;4954984;29;20233;-72
2022/05/20 01:39:48;;;;;;;8.73;7.93;;;19.90;27.30;;;;;;4955561;29;20174;-72
2022/05/20 01:42:36;;;;;;;8.80;8.10;;;20.00;26.90;;;;;;4955484;29;20194;-72
2022/05/20 01:45:11;;;;;;;8.47;7.20;;;20.00;26.50;;;;;;4955574;28;20283;-72
2022/05/20 01:47:52;;;;;;;7.43;6.90;;;19.90;26.40;;;;;;4955161;29;20416;-70
2022/05/20 01:50:28;;;;;;;8.23;7.73;;;19.90;26.50;;;;;;4956405;29;20899;-70
2022/05/20 01:53:03;;;;;;;7.00;6.60;;;19.90;26.40;;;;;;4956172;28;20414;-71
2022/05/20 01:55:47;;;;;;;8.53;7.83;;;19.90;26.40;;;;;;4956746;29;20413;-70
2022/05/20 01:58:25;;;;;;;8.73;8.03;;;19.80;26.50;;;;;;4954749;29;20803;-71
2022/05/20 02:00:55;;;;;;;8.30;7.70;;;19.80;26.30;;;;;;4955078;29;20928;-71
2022/05/20 02:03:59;;;;;;;7.37;6.87;;;19.80;26.20;;;;;;4958744;28;20438;-72
2022/05/20 02:06:49;;;;;;;9.20;8.30;;;19.80;26.20;;;;;;4938184;29;20857;-72
2022/05/20 02:09:45;;;;;;;8.23;7.63;;;19.80;26.10;;;;;;4959052;29;20448;-71
2022/05/20 02:12:17;;;;;;;7.90;7.40;;;19.80;26.10;;;;;;4959245;29;20456;-71
2022/05/20 02:15:00;;;;;;;8.37;7.63;;;19.80;26.00;;;;;;4957366;28;20469;-71
2022/05/20 02:17:34;;;;;;;8.83;8.23;;;19.80;25.70;;;;;;4955687;29;20453;-72
2022/05/20 02:20:05;;;;;;;10.70;8.00;;;19.70;25.70;;;;;;4956598;29;20506;-72
2022/05/20 02:22:38;;;;;;;8.30;7.80;;;19.70;25.70;;;;;;4955755;29;20757;-72
2022/05/20 02:25:06;;;;;;;8.67;8.07;;;19.70;25.50;;;;;;4955541;28;20512;-72
2022/05/20 02:27:38;;;;;;;7.83;7.33;;;19.70;25.30;;;;;;4955118;29;20406;-71
2022/05/20 02:30:06;;;;;;;7.03;6.60;;;19.70;25.40;;;;;;4938664;29;20457;-72
2022/05/20 02:32:37;;;;;;;8.40;7.80;;;19.70;25.00;;;;;;4955335;29;20456;-70
2022/05/20 02:35:03;;;;;;;7.77;7.37;;;19.80;25.10;;;;;;4938667;29;20434;-72
2022/05/20 02:37:34;;;;;;;8.70;8.10;;;19.70;25.00;;;;;;4954973;29;20413;-72
2022/05/20 02:40:01;;;;;;;9.37;8.47;;;19.80;25.10;;;;;;4955124;29;20839;-70
2022/05/20 02:42:28;;;;;;;8.10;7.60;;;19.80;25.10;;;;;;4938059;29;20430;-71
2022/05/20 02:44:55;;;;;;;7.90;7.10;;;19.80;25.10;;;;;;4955675;28;20430;-71
2022/05/20 02:47:20;;;;;;;9.50;8.60;;;19.90;25.20;;;;;;4937946;29;20442;-71
2022/05/20 02:49:46;;;;;;;9.53;8.80;;;19.90;24.40;;;;;;4955293;29;20724;-71
2022/05/20 02:52:12;;;;;;;9.40;8.80;;;20.00;24.20;;;;;;4954632;29;20264;-71
2022/05/20 02:54:37;;;;;;;7.37;6.77;;;19.80;26.10;;;;;;4954815;28;20208;-71
2022/05/20 02:57:04;;;;;;;7.07;6.47;;;19.50;28.20;;;;;;4954913;29;20185;-71
2022/05/20 03:04:58;;;;;;;7.20;6.50;;;19.10;30.20;;;;;;4955259;28;20440;-72
2022/05/20 03:07:23;;;;;;;6.90;6.20;;;18.80;31.30;;;;;;4956691;29;20414;-72
2022/05/20 03:09:51;;;;;;;7.17;6.53;;;18.50;33.20;;;;;;4956948;29;20189;-71
2022/05/20 03:12:17;;;;;;;7.40;5.00;;;18.50;33.50;;;;;;4938927;29;20222;-71
2022/05/20 03:14:43;;;;;;;8.20;6.93;;;18.50;33.20;;;;;;4955194;28;20754;-71
2022/05/20 03:17:09;;;;;;;11.37;6.20;;;18.40;33.50;;;;;;4955748;29;20418;-71
2022/05/20 03:19:34;;;;;;;7.73;6.30;;;18.30;35.10;;;;;;4956793;29;20213;-72
2022/05/20 03:22:05;;;;;;;6.80;5.80;;;18.20;35.60;;;;;;4957715;29;20182;-72
2022/05/20 03:24:31;;;;;;;9.97;6.90;;;18.20;35.90;;;;;;4957353;28;20218;-72
2022/05/20 03:26:56;;;;;;;8.47;7.67;;;18.20;36.10;;;;;;4959019;29;20421;-72
2022/05/20 03:29:22;;;;;;;6.43;5.83;;;18.30;35.80;;;;;;4938575;29;20432;-71
2022/05/20 03:31:48;;;;;;;8.03;6.30;;;18.30;35.50;;;;;;4955961;29;20181;-72
2022/05/20 03:34:14;;;;;;;7.90;6.60;;;18.40;35.40;;;;;;4955268;28;20583;-72
2022/05/20 03:36:42;;;;;;;6.87;6.23;;;18.30;35.10;;;;;;4958023;28;20919;-72
2022/05/20 03:39:10;;;;;;;7.90;5.80;;;18.30;35.50;;;;;;4958162;29;20467;-71
2022/05/20 03:41:37;;;;;;;6.90;6.30;;;18.30;35.50;;;;;;4958368;29;20482;-72
2022/05/20 03:44:08;;;;;;;19.10;8.00;;;17.90;37.80;;;;;;4958241;28;20477;-72
2022/05/20 03:46:40;;;;;;;13.03;7.60;;;18.00;38.10;;;;;;4958107;29;20464;-72
2022/05/20 03:49:05;;;;;;;8.03;7.27;;;18.20;37.10;;;;;;4958300;29;20413;-72
2022/05/20 03:51:31;;;;;;;8.23;6.37;;;18.10;37.00;;;;;;4957910;29;20421;-72
2022/05/20 03:53:56;;;;;;;11.23;7.13;;;17.90;38.00;;;;;;4958684;28;20205;-71
2022/05/20 03:56:22;;;;;;;8.77;6.77;;;17.80;38.60;;;;;;4958650;29;20213;-72
2022/05/20 03:58:48;;;;;;;7.17;6.40;;;17.70;39.60;;;;;;4957553;29;20214;-72
2022/05/20 04:03:58;;;;;;;8.03;5.60;;;17.90;38.10;;;;;;4958547;28;20558;-72
2022/05/20 04:06:23;;;;;;;10.00;6.63;;;17.80;39.10;;;;;;4958431;29;20417;-72
2022/05/20 04:08:49;;;;;;;9.90;7.23;;;17.90;39.60;;;;;;4958060;29;20179;-72
2022/05/20 04:11:16;;;;;;;7.30;6.60;;;18.00;38.10;;;;;;4960493;29;20194;-72
2022/05/20 04:13:43;;;;;;;7.33;6.20;;;18.10;38.10;;;;;;4959768;28;20806;-72
2022/05/20 04:16:10;;;;;;;8.23;7.40;;;18.20;37.60;;;;;;4959811;29;20418;-72
2022/05/20 04:18:37;;;;;;;12.30;6.30;;;18.30;37.10;;;;;;4957390;29;21046;-72
2022/05/20 04:21:04;;;;;;;7.17;6.10;;;18.40;36.90;;;;;;4957224;29;20480;-72
2022/05/20 04:23:29;;;;;;;7.67;6.97;;;18.50;35.70;;;;;;4957326;28;20452;-73
2022/05/20 04:25:55;;;;;;;7.63;6.83;;;18.50;36.20;;;;;;4957206;29;20930;-68
2022/05/20 04:28:21;;;;;;;7.10;6.37;;;18.60;35.50;;;;;;4955693;29;20182;-67
2022/05/20 04:30:46;;;;;;;7.33;6.63;;;18.40;36.40;;;;;;4955695;29;20193;-68
2022/05/20 04:33:13;;;;;;;8.93;5.67;;;18.60;35.70;;;;;;4956103;28;20250;-69
2022/05/20 04:35:38;;;;;;;7.30;6.50;;;18.60;35.30;;;;;;4956433;29;20174;-67
2022/05/20 04:38:04;;;;;;;6.20;5.60;;;18.60;36.20;;;;;;4955541;29;20465;-66
2022/05/20 04:40:30;;;;;;;6.03;5.47;;;18.70;35.10;;;;;;4938682;29;20185;-68
2022/05/20 04:48:24;;;;;;;5.83;5.33;;;18.60;36.10;;;;;;4954392;29;20452;-68
2022/05/20 04:50:50;;;;;;;6.23;5.63;;;18.90;35.20;;;;;;4955504;29;20461;-68
2022/05/20 04:54:49;;;;;;;8.13;7.10;;;19.30;34.00;;;;;;4955399;28;20198;-68
2022/05/20 04:56:01;;;;;;;8.57;7.77;;;19.60;31.80;;;;;;4955335;29;20190;-68
2022/05/20 04:58:26;;;;;;;8.67;6.77;;;19.90;30.60;;;;;;4954665;29;20491;-68
2022/05/20 05:00:54;;;;;;;8.13;7.43;;;20.20;30.30;;;;;;4955301;29;20205;-68
2022/05/20 05:03:20;;;;;;;12.30;8.73;;;20.80;29.10;;;;;;4937998;29;20200;-68
2022/05/20 05:05:45;;;;;;;8.70;8.00;;;21.60;27.40;;;;;;4955330;29;20414;-68
2022/05/20 05:08:11;;;;;;;10.17;9.40;;;22.70;26.70;;;;;;4954957;29;20269;-69
2022/05/20 05:10:36;;;;;;;12.03;11.13;;;23.90;24.80;;;;;;4954832;29;20297;-69
2022/05/20 05:13:02;;;;;;;13.80;12.90;;;25.00;22.70;;;;;;4954893;28;20214;-67
2022/05/20 05:15:28;;;;;;;13.70;12.87;;;26.00;19.40;;;;;;4954841;29;20202;-67
2022/05/20 05:18:37;;;;;;;16.90;15.17;;;26.90;16.50;;;;;;4954509;29;20493;-67
2022/05/20 05:20:45;;;;;;;15.73;14.83;;;26.90;16.10;;;;;;4946783;29;20201;-67
2022/05/20 05:25:42;;;;;;;15.00;14.30;;;28.20;14.70;;;;;;4972062;28;20479;-67
2022/05/20 05:28:08;;;;;;;16.40;15.50;;;27.70;15.10;;;;;;4974119;28;20496;-69
2022/05/20 05:30:34;;;;;;;16.70;15.90;;;27.60;13.00;;;;;;4973932;28;20500;-70
2022/05/20 05:33:00;;;;;;;17.03;16.03;;;28.00;13.00;;;;;;4973889;28;20318;-69
2022/05/20 05:35:27;;;;;;;16.07;15.13;;;27.20;12.20;;;;;;4973694;28;20964;-69
2022/05/20 05:37:53;;;;;;;16.87;15.77;;;27.20;14.20;;;;;;4973500;28;20228;-69
2022/05/20 05:40:21;;;;;;;15.93;14.93;;;27.70;13.30;;;;;;4957156;28;20519;-70
2022/05/20 05:42:48;;;;;;;19.83;18.40;;;28.00;13.30;;;;;;4973986;28;20177;-70
2022/05/20 05:45:16;;;;;;;16.93;16.03;;;28.80;12.90;;;;;;4973718;28;20788;-69
2022/05/20 05:47:42;;;;;;;17.13;16.20;;;29.70;11.70;;;;;;4973549;28;20535;-70
2022/05/20 05:50:08;;;;;;;16.10;15.30;;;30.10;10.00;;;;;;4953733;28;20992;-69
2022/05/20 05:52:34;;;;;;;16.27;15.47;;;30.20;10.20;;;;;;4964116;28;20188;-69
2022/05/20 05:55:03;;;;;;;17.13;15.77;;;30.20;10.30;;;;;;4956395;28;20491;-69
2022/05/20 05:57:29;;;;;;;19.00;17.27;;;30.70;9.40;;;;;;4957718;28;20784;-69
2022/05/20 05:59:56;;;;;;;17.03;15.77;;;30.90;9.40;;;;;;4954385;28;20528;-69
2022/05/20 06:02:21;;;;;;;16.10;15.30;;;30.70;8.80;;;;;;4937428;29;20194;-70
2022/05/20 06:04:48;;;;;;;16.70;15.80;;;30.50;9.40;;;;;;4954739;29;20492;-69
2022/05/20 06:07:14;;;;;;;17.70;16.27;;;30.70;10.10;;;;;;4954857;29;20263;-69
2022/05/20 06:09:40;;;;;;;16.13;15.33;;;31.30;8.50;;;;;;4970960;28;20425;-70
2022/05/20 06:12:07;;;;;;;15.30;14.50;;;31.90;7.10;;;;;;4973612;28;20436;-69
2022/05/20 06:14:32;;;;;;;16.33;15.33;;;32.40;7.00;;;;;;4973468;28;20447;-69
2022/05/20 06:16:58;;;;;;;16.70;15.53;;;33.30;6.00;;;;;;4955869;28;20428;-70
2022/05/20 06:19:23;;;;;;;15.57;14.87;;;33.90;5.40;;;;;;4955835;28;20217;-70
2022/05/20 06:21:49;;;;;;;17.20;16.07;;;34.70;4.80;;;;;;4974067;28;20239;-69
2022/05/20 06:24:15;;;;;;;16.20;15.40;;;35.20;3.70;;;;;;4973688;28;20261;-69
2022/05/20 06:26:41;;;;;;;16.77;15.67;;;34.50;2.00;;;;;;4973411;28;20402;-69
2022/05/20 06:29:07;;;;;;;20.23;18.73;;;33.10;5.60;;;;;;4973177;28;20611;-69
2022/05/20 06:31:33;;;;;;;16.00;15.30;;;33.60;5.30;;;;;;4973546;28;20504;-69
2022/05/20 06:33:59;;;;;;;15.13;14.43;;;33.90;4.30;;;;;;4973510;28;20938;-69
2022/05/20 06:39:55;;;;;;;26.00;16.90;;;33.80;4.30;;;;;;4909230;29;20628;-70
2022/05/20 06:42:13;;;;;;;18.20;17.27;;;34.60;4.00;;;;;;4950351;28;20440;-69
2022/05/20 06:44:38;;;;;;;16.40;15.53;;;35.20;2.80;;;;;;4953559;29;20441;-70
2022/05/20 06:47:05;;;;;;;16.83;16.03;;;35.40;2.30;;;;;;4954756;28;20658;-68
2022/05/20 06:49:31;;;;;;;17.37;16.37;;;35.30;2.00;;;;;;4936138;29;20206;-68
2022/05/20 06:51:56;;;;;;;16.90;15.60;;;35.10;2.60;;;;;;4953612;29;20436;-67
2022/05/20 06:54:23;;;;;;;17.10;16.10;;;35.20;2.40;;;;;;4953374;28;20457;-67
2022/05/20 06:56:49;;;;;;;17.93;16.27;;;34.40;2.50;;;;;;4953682;28;20189;-68
2022/05/20 06:59:15;;;;;;;17.10;16.07;;;33.80;2.80;;;;;;4952898;29;20460;-68
2022/05/20 07:01:40;;;;;;;16.10;15.20;;;33.50;4.20;;;;;;4954329;28;20432;-68
2022/05/20 07:04:07;;;;;;;17.53;16.63;;;34.20;3.90;;;;;;4953299;29;20209;-68
2022/05/20 07:06:34;;;;;;;17.53;16.40;;;35.30;3.00;;;;;;4952003;28;20182;-68
2022/05/20 07:09:00;;;;;;;17.03;16.13;;;36.20;1.90;;;;;;4951120;28;20428;-68
2022/05/20 07:11:27;;;;;;;17.43;16.23;;;36.90;1.00;;;;;;4961858;28;20594;-66
2022/05/20 07:13:55;;;;;;;17.43;16.47;;;37.30;1.00;;;;;;4972876;28;20892;-66
2022/05/20 07:16:23;;;;;;;16.90;16.10;;;37.40;1.00;;;;;;4963845;28;20917;-67
2022/05/20 07:18:49;;;;;;;16.90;16.20;;;37.70;1.00;;;;;;4965270;28;20840;-67
2022/05/20 07:21:14;;;;;;;17.27;16.30;;;37.40;1.00;;;;;;4983729;28;20912;-66
2022/05/20 07:23:40;;;;;;;16.90;15.70;;;37.30;1.00;;;;;;4971136;28;20218;-68
2022/05/20 07:26:06;;;;;;;17.93;17.10;;;35.20;1.40;;;;;;4953294;29;20194;-68
2022/05/20 07:28:32;;;;;;;17.53;16.53;;;33.30;3.70;;;;;;4990829;28;20239;-70
2022/05/20 07:30:58;;;;;;;19.00;18.00;;;34.40;2.60;;;;;;4995579;28;20188;-69
2022/05/20 07:33:24;;;;;;;19.03;18.03;;;35.50;2.40;;;;;;4995893;28;20427;-68
2022/05/20 07:35:50;;;;;;;18.23;17.27;;;36.40;1.00;;;;;;4975373;28;20948;-68
2022/05/20 07:38:15;;;;;;;17.13;16.33;;;37.30;1.00;;;;;;4975699;28;20569;-68
2022/05/20 07:40:43;;;;;;;18.80;17.90;;;38.00;1.00;;;;;;4975765;28;20179;-69
2022/05/20 07:43:08;;;;;;;17.60;16.60;;;38.60;1.00;;;;;;4975665;28;20264;-68
2022/05/20 07:45:34;;;;;;;18.63;17.50;;;36.80;1.00;;;;;;4958157;28;20487;-68
2022/05/20 07:48:00;;;;;;;18.60;17.50;;;37.60;1.00;;;;;;4954366;29;20186;-68
2022/05/20 07:50:26;;;;;;;18.30;17.40;;;37.80;1.00;;;;;;4939448;29;20190;-68
2022/05/20 07:55:45;;;;;;;19.23;17.90;;;38.40;1.00;;;;;;4942844;29;20192;-67
2022/05/20 07:58:14;;;;;;;17.13;16.30;;;38.60;1.00;;;;;;4957691;28;20510;-68
2022/05/20 08:00:41;;;;;;;18.93;17.80;;;38.70;1.00;;;;;;4975330;28;20409;-68
2022/05/20 08:03:10;;;;;;;16.83;16.13;;;38.80;1.00;;;;;;4968063;28;20422;-68
2022/05/20 08:05:36;;;;;;;17.70;17.00;;;38.60;1.00;;;;;;4956314;29;20452;-68
2022/05/20 08:08:05;;;;;;;18.17;17.27;;;38.70;1.00;;;;;;4955767;29;20416;-68
2022/05/20 08:10:33;;;;;;;18.17;17.33;;;38.60;1.00;;;;;;4956094;29;20775;-68
2022/05/20 08:13:00;;;;;;;18.40;17.40;;;38.60;1.00;;;;;;4956254;29;20827;-68
2022/05/20 08:15:26;;;;;;;18.53;17.53;;;38.50;1.00;;;;;;4956034;29;20445;-68
2022/05/20 08:17:52;;;;;;;18.60;17.50;;;38.50;1.00;;;;;;4967655;28;20490;-69
2022/05/20 08:20:28;;;;;;;18.57;17.57;;;38.60;1.00;;;;;;4975353;28;20424;-68
2022/05/20 08:22:55;;;;;;;17.87;17.07;;;37.90;1.00;;;;;;4975083;28;20951;-68
2022/05/20 08:25:22;;;;;;;18.00;16.90;;;37.00;1.00;;;;;;4975243;28;20479;-67
2022/05/20 08:27:47;;;;;;;18.10;17.30;;;37.00;1.00;;;;;;4957574;28;20886;-68
2022/05/20 08:30:33;;;;;;;16.50;15.80;;;37.00;1.00;;;;;;4975023;28;20447;-68
2022/05/20 08:32:58;;;;;;;17.50;16.57;;;37.20;1.00;;;;;;4971172;28;20181;-69
2022/05/20 08:35:26;;;;;;;17.83;17.00;;;37.30;1.00;;;;;;4975245;28;20432;-69
2022/05/20 08:37:52;;;;;;;18.43;17.33;;;37.10;1.00;;;;;;4974509;28;20178;-69
2022/05/20 08:40:32;;;;;;;18.17;17.37;;;35.70;1.00;;;;;;4975152;28;20417;-69
2022/05/20 08:43:00;;;;;;;19.40;18.00;;;35.80;1.30;;;;;;4975367;28;20170;-69
2022/05/20 08:45:28;;;;;;;17.30;16.60;;;35.70;1.00;;;;;;4973811;28;20459;-68
2022/05/20 08:47:54;;;;;;;17.63;16.83;;;34.70;1.00;;;;;;4974611;28;20417;-69
2022/05/20 08:50:47;;;;;;;19.50;18.43;;;33.50;4.30;;;;;;4974606;28;20873;-69
2022/05/20 08:53:26;;;;;;;17.90;17.07;;;33.40;3.70;;;;;;4961344;28;20433;-68
2022/05/20 08:55:53;;;;;;;18.17;17.30;;;32.80;4.50;;;;;;4974779;28;20425;-68
2022/05/20 08:58:22;;;;;;;18.13;17.33;;;32.60;2.90;;;;;;4957221;28;20472;-68
2022/05/20 09:00:48;;;;;;;18.77;17.57;;;32.40;1.00;;;;;;4973271;28;20429;-68
2022/05/20 09:03:13;;;;;;;17.50;16.60;;;31.90;1.60;;;;;;4974093;28;20416;-69
2022/05/20 09:05:41;;;;;;;18.37;17.47;;;31.90;3.40;;;;;;4974458;28;20177;-68
2022/05/20 09:08:24;;;;;;;17.97;16.90;;;31.50;2.70;;;;;;4956937;28;20213;-68
2022/05/20 09:10:57;;;;;;;18.37;17.37;;;30.60;4.70;;;;;;4974468;28;20413;-68
2022/05/20 09:16:14;;;;;;;17.40;16.60;;;31.40;5.10;;;;;;4954957;29;20416;-68
2022/05/20 09:18:42;;;;;;;17.93;17.13;;;31.40;4.60;;;;;;4937290;29;20853;-69
2022/05/20 09:21:22;;;;;;;18.47;17.57;;;31.30;5.00;;;;;;4955073;29;20505;-68
2022/05/20 09:23:55;;;;;;;17.63;16.50;;;31.20;4.00;;;;;;4937911;29;20776;-68
2022/05/20 09:26:24;;;;;;;17.33;16.63;;;31.10;4.90;;;;;;4955081;29;20417;-68
2022/05/20 09:29:10;;;;;;;17.80;16.20;;;31.10;4.90;;;;;;4967561;28;20432;-69
2022/05/20 09:31:50;;;;;;;17.80;17.00;;;31.10;4.90;;;;;;4974046;28;20416;-69
2022/05/20 09:34:26;;;;;;;17.20;16.20;;;30.90;4.10;;;;;;4956534;28;20863;-68
2022/05/20 09:37:01;;;;;;;17.77;16.93;;;30.80;4.40;;;;;;4946182;29;20433;-69
2022/05/20 09:39:39;;;;;;;18.10;17.00;;;30.70;4.70;;;;;;4954093;29;20463;-68
2022/05/20 09:42:14;;;;;;;17.23;16.27;;;30.60;4.30;;;;;;4954545;28;20808;-68
2022/05/20 09:44:42;;;;;;;17.50;16.60;;;30.50;2.80;;;;;;4954543;29;20795;-68
2022/05/20 09:47:17;;;;;;;18.90;17.50;;;30.50;3.10;;;;;;4954562;29;20787;-69
2022/05/20 09:49:52;;;;;;;17.73;16.43;;;30.50;2.50;;;;;;4954730;29;20416;-67
2022/05/20 09:52:40;;;;;;;17.40;16.60;;;30.50;3.10;;;;;;4968703;28;20825;-67
2022/05/20 09:55:12;;;;;;;15.97;15.17;;;30.50;1.80;;;;;;4973574;28;20424;-67
2022/05/20 09:57:43;;;;;;;16.40;15.60;;;30.50;1.40;;;;;;4972911;28;20527;-67
2022/05/20 10:00:18;;;;;;;16.03;15.33;;;30.50;1.50;;;;;;4956318;28;20863;-67
2022/05/20 10:03:05;;;;;;;16.20;15.30;;;30.50;1.80;;;;;;4973408;28;20500;-67
2022/05/20 10:05:47;;;;;;;15.93;15.13;;;30.60;1.90;;;;;;4969591;28;20477;-67
2022/05/20 10:08:12;;;;;;;16.83;15.93;;;30.70;1.00;;;;;;4953702;29;20402;-67
2022/05/20 10:10:48;;;;;;;15.93;14.83;;;30.80;1.90;;;;;;4954057;29;20766;-67
2022/05/20 10:13:41;;;;;;;17.30;16.03;;;30.80;1.70;;;;;;4954210;29;20189;-67
2022/05/20 10:16:12;;;;;;;17.20;15.90;;;30.90;1.00;;;;;;4962440;28;20956;-67
2022/05/20 10:19:00;;;;;;;17.10;16.10;;;30.80;1.30;;;;;;4973094;28;20499;-67
2022/05/20 10:21:35;;;;;;;16.40;15.60;;;30.80;1.30;;;;;;4955592;28;20556;-67
2022/05/20 10:24:18;;;;;;;17.97;15.13;;;30.80;2.00;;;;;;4972817;28;20539;-67
2022/05/20 10:27:10;;;;;;;17.07;16.07;;;30.90;2.70;;;;;;4970893;28;20455;-67
2022/05/20 10:32:43;;;;;;;17.13;16.23;;;31.00;2.20;;;;;;4960931;28;20616;-68
2022/05/20 10:35:13;;;;;;;17.17;16.37;;;31.00;2.60;;;;;;4953682;29;21230;-67
2022/05/20 10:37:52;;;;;;;16.53;15.83;;;31.00;2.50;;;;;;4936008;29;20951;-67
2022/05/20 10:40:41;;;;;;;16.50;15.60;;;31.10;2.40;;;;;;4953986;29;20516;-68
2022/05/20 10:48:34;;;;;;;16.00;15.20;;;31.10;3.30;;;;;;4947819;28;20459;-67
2022/05/20 10:49:15;;;;;;;17.33;16.33;;;31.10;2.60;;;;;;4969499;28;20484;-67
2022/05/20 10:52:07;;;;;;;16.20;15.30;;;31.10;1.70;;;;;;4936589;29;20449;-67
2022/05/20 10:54:52;;;;;;;17.07;16.00;;;31.20;1.50;;;;;;4953378;29;20451;-67
2022/05/20 10:57:56;;;;;;;17.53;16.63;;;31.10;2.30;;;;;;4953843;28;20435;-67
2022/05/20 11:00:25;;;;;;;17.60;16.70;;;31.20;1.20;;;;;;4875822;29;20942;-67
2022/05/20 11:02:56;;;;;;;16.03;15.23;;;31.30;1.70;;;;;;4860273;29;20807;-68
2022/05/20 11:05:55;;;;;;;17.80;16.87;;;31.40;2.50;;;;;;4916201;29;20457;-68
2022/05/20 11:08:41;;;;;;;17.27;16.43;;;31.50;1.90;;;;;;4936403;29;20504;-68
2022/05/20 11:11:19;;;;;;;17.03;16.23;;;31.40;1.50;;;;;;4909362;28;20929;-68
2022/05/20 11:13:54;;;;;;;16.53;15.70;;;31.40;2.60;;;;;;4972328;28;20447;-69
2022/05/20 11:16:32;;;;;;;17.53;16.63;;;31.40;1.60;;;;;;4960995;28;20437;-69
2022/05/20 11:19:39;;;;;;;16.30;15.50;;;31.40;1.80;;;;;;4972294;28;20940;-69
2022/05/20 11:22:19;;;;;;;16.93;16.13;;;31.40;1.00;;;;;;4960540;28;20461;-70
2022/05/20 11:25:24;;;;;;;16.47;15.73;;;31.40;1.00;;;;;;4975042;23;20504;-68
2022/05/20 11:28:02;;;;;;;17.77;16.33;;;31.40;1.00;;;;;;4964763;28;20436;-68
2022/05/20 11:30:38;;;;;;;15.97;15.03;;;31.40;1.00;;;;;;4972604;28;20495;-68
2022/05/20 11:33:36;;;;;;;16.10;15.10;;;31.40;1.00;;;;;;4974839;28;20409;-68
2022/05/20 11:36:26;;;;;;;16.80;15.67;;;31.40;1.00;;;;;;4972769;28;20409;-69
2022/05/20 11:39:10;;;;;;;15.57;14.87;;;31.50;1.00;;;;;;4972258;28;20506;-68
2022/05/20 11:42:01;;;;;;;15.20;14.60;;;31.50;1.00;;;;;;4972827;28;20479;-68
2022/05/20 11:44:39;;;;;;;17.50;16.43;;;31.60;1.00;;;;;;4953344;28;20437;-67
2022/05/20 11:47:14;;;;;;;16.03;15.23;;;31.70;1.00;;;;;;4953391;29;20457;-68
2022/05/20 11:49:58;;;;;;;16.03;15.30;;;31.70;1.00;;;;;;4953324;29;20419;-68
2022/05/20 11:52:38;;;;;;;15.93;15.13;;;31.70;1.00;;;;;;4953304;29;20416;-68
2022/05/20 11:55:21;;;;;;;17.00;15.90;;;31.70;1.00;;;;;;4953210;29;20424;-67
2022/05/20 11:58:01;;;;;;;16.17;15.23;;;31.80;1.00;;;;;;4955732;28;20500;-68
2022/05/20 12:00:29;;;;;;;16.47;15.57;;;31.90;1.00;;;;;;4956747;29;20421;-68
2022/05/20 12:03:17;;;;;;;18.10;17.27;;;32.00;1.00;;;;;;4956853;29;20417;-68
2022/05/20 12:05:46;;;;;;;17.27;16.57;;;32.00;1.00;;;;;;4957029;28;20437;-69
2022/05/20 12:08:37;;;;;;;15.53;14.93;;;32.10;1.00;;;;;;4956990;29;20447;-68
2022/05/20 12:11:23;;;;;;;16.70;15.90;;;32.10;1.00;;;;;;4956777;29;20915;-73
2022/05/20 12:14:10;;;;;;;16.73;15.93;;;32.20;1.00;;;;;;4956985;29;20445;-70
2022/05/20 12:17:05;;;;;;;16.07;15.37;;;32.10;1.00;;;;;;4956989;29;20417;-70
2022/05/20 12:25:37;;;;;;;16.10;15.37;;;31.90;1.00;;;;;;4957249;29;20472;-70
2022/05/20 12:28:03;;;;;;;16.70;15.77;;;31.80;1.00;;;;;;4956624;28;20428;-70
2022/05/20 12:30:41;;;;;;;16.17;15.47;;;31.80;1.00;;;;;;4956690;29;20417;-69
2022/05/20 12:33:46;;;;;;;16.73;16.00;;;31.80;1.00;;;;;;4956696;29;20177;-70
2022/05/20 12:36:14;;;;;;;16.53;15.63;;;31.70;1.00;;;;;;4956644;29;20429;-70
2022/05/20 12:38:41;;;;;;;16.87;15.97;;;31.70;1.00;;;;;;4956103;28;20452;-70
2022/05/20 12:41:45;;;;;;;17.07;16.07;;;31.70;1.00;;;;;;4956568;29;20768;-69
2022/05/20 12:44:17;;;;;;;16.40;15.17;;;31.70;1.00;;;;;;4948464;29;20945;-69
2022/05/20 12:47:02;;;;;;;16.13;15.43;;;31.70;1.00;;;;;;4956057;29;20497;-73
2022/05/20 12:49:34;;;;;;;16.50;15.70;;;31.80;1.00;;;;;;4956128;28;20417;-70
2022/05/20 12:52:26;;;;;;;16.87;16.07;;;31.80;1.00;;;;;;4956667;29;20839;-70
2022/05/20 12:54:55;;;;;;;17.20;16.10;;;31.80;1.00;;;;;;4956421;29;20481;-70
2022/05/20 12:57:30;;;;;;;16.90;16.07;;;31.80;1.00;;;;;;4955536;29;20521;-70
2022/05/20 12:59:58;;;;;;;15.10;14.50;;;31.80;1.00;;;;;;4955509;29;20512;-70
2022/05/20 13:02:29;;;;;;;16.70;16.00;;;31.80;1.00;;;;;;4954320;29;20428;-69
2022/05/20 13:05:02;;;;;;;15.80;15.10;;;31.90;1.00;;;;;;4955431;28;20448;-70
2022/05/20 13:07:28;;;;;;;16.10;15.23;;;32.00;1.00;;;;;;4954819;28;20437;-69
2022/05/20 13:09:54;;;;;;;15.97;15.27;;;32.00;1.00;;;;;;4959509;28;20417;-69
2022/05/20 13:12:21;;;;;;;16.53;15.67;;;32.10;1.00;;;;;;4974758;28;20986;-69
2022/05/20 13:15:15;;;;;;;16.53;15.77;;;32.20;1.00;;;;;;4974861;28;20232;-70
2022/05/20 13:17:41;;;;;;;17.03;16.23;;;32.20;1.00;;;;;;4974561;28;20472;-70
2022/05/20 13:20:09;;;;;;;16.13;15.43;;;32.20;1.00;;;;;;4956287;28;20465;-66
2022/05/20 13:22:49;;;;;;;17.00;16.20;;;32.20;1.00;;;;;;4951048;29;20671;-70
2022/05/20 13:25:17;;;;;;;16.33;15.63;;;32.20;1.00;;;;;;4962232;28;20456;-67
2022/05/20 13:27:48;;;;;;;16.27;15.43;;;32.20;1.00;;;;;;4970351;28;20428;-70
2022/05/20 13:30:18;;;;;;;16.03;14.77;;;32.30;1.00;;;;;;4969860;28;20437;-70
2022/05/20 13:32:44;;;;;;;15.73;15.10;;;32.30;1.00;;;;;;4968576;28;20543;-69
2022/05/20 13:35:10;;;;;;;16.23;15.43;;;32.30;1.00;;;;;;4969198;28;20610;-68
2022/05/20 13:37:48;;;;;;;16.10;15.30;;;32.30;1.00;;;;;;4969878;28;21045;-70
2022/05/20 13:40:22;;;;;;;17.00;16.00;;;32.30;1.00;;;;;;4963314;28;20570;-69
2022/05/20 13:42:51;;;;;;;16.47;15.57;;;32.40;1.00;;;;;;4969574;28;20428;-71